Mackenzie, Canada
Current Conditions -  °F | °C
As of 11:00 AM on Friday 24 Oct 2014 (Local Time) from CYZY Reporting Station
Clear Clear  
Wind Chill: -1°   Ceiling: Unl
Heat Index:   Visibility: 9mi
Dew Point:   Wind: 10mph
Humidity: 87%   Direction: 150°SSE
Pressure: 29.94"   Gusts: NA
Location:  55.33°N, 123.09°W
Report Text: CYZY 241800Z AUTO 15009KT 9SM CLR 03/01 A2994 RMK SLP168
Loading
Personal Weather Stations






























Interactive Weather Map
Tropical Storm Tracking
New forecast layout! Learn more

10-Day Weather Forecast

Advertisements
Track Severe Weather on mobile